createdAt,value
2017-07-24T00:03:01.346Z,6.73
2017-07-24T00:08:03.078Z,7.13
2017-07-24T00:13:04.875Z,3.67
2017-07-24T00:18:07.377Z,11.77
2017-07-24T00:23:09.117Z,6.27
2017-07-24T00:28:10.865Z,4.23
2017-07-24T00:33:12.611Z,5.70
2017-07-24T00:38:14.458Z,5.27
2017-07-24T00:43:16.281Z,3.60
2017-07-24T00:48:18.101Z,10.33
2017-07-24T00:53:19.879Z,6.30
2017-07-24T00:58:21.655Z,2.80
2017-07-24T01:03:23.409Z,7.73
2017-07-24T01:08:25.220Z,12.60
2017-07-24T01:13:26.946Z,5.67
2017-07-24T01:18:28.868Z,5.47
2017-07-24T01:23:30.989Z,4.80
2017-07-24T01:28:32.730Z,6.00
2017-07-24T01:33:34.478Z,4.87
2017-07-24T01:38:36.965Z,6.60
2017-07-24T01:43:38.777Z,8.13
2017-07-24T01:48:40.533Z,5.40
2017-07-24T01:53:42.402Z,5.63
2017-07-24T01:58:44.205Z,6.37
2017-07-24T02:03:46.843Z,5.67
2017-07-24T02:08:48.722Z,9.87
2017-07-24T02:13:50.530Z,2.43
2017-07-24T02:18:52.285Z,9.70
2017-07-24T02:23:54.046Z,7.30
2017-07-24T02:28:55.782Z,4.10
2017-07-24T02:33:57.526Z,4.50
2017-07-24T02:38:59.251Z,4.80
2017-07-24T02:44:01.024Z,3.83
2017-07-24T02:49:02.782Z,5.23
2017-07-24T02:54:05.294Z,6.23
2017-07-24T02:59:07.026Z,3.97
2017-07-24T03:04:08.853Z,7.83
2017-07-24T03:09:10.651Z,4.50
2017-07-24T03:14:12.402Z,10.07
2017-07-24T03:19:14.939Z,3.50
2017-07-24T03:24:16.778Z,12.90
2017-07-24T03:29:18.585Z,3.57
2017-07-24T03:34:20.512Z,6.13
2017-07-24T03:39:22.291Z,4.40
2017-07-24T03:44:24.046Z,9.03
2017-07-24T03:49:25.849Z,6.60
2017-07-24T03:54:27.622Z,3.70
2017-07-24T03:59:29.446Z,4.17
2017-07-24T04:04:31.367Z,6.93
2017-07-24T04:09:33.145Z,3.00
2017-07-24T04:14:34.944Z,3.30
2017-07-24T04:19:37.398Z,7.63
2017-07-24T04:24:39.146Z,3.90
2017-07-24T04:29:40.858Z,3.53
2017-07-24T04:34:42.697Z,3.97
2017-07-24T04:39:44.427Z,4.33
2017-07-24T04:44:46.214Z,3.87
2017-07-24T04:49:48.012Z,3.77
2017-07-24T04:54:49.742Z,7.83
2017-07-24T04:59:51.591Z,10.33
2017-07-24T05:04:53.479Z,6.33
2017-07-24T05:09:55.254Z,2.43
2017-07-24T05:14:57.122Z,4.23
2017-07-24T05:19:59.021Z,8.07
2017-07-24T05:25:15.727Z,12.80
2017-07-24T05:30:17.496Z,8.00
2017-07-24T05:35:19.248Z,5.17
2017-07-24T05:40:21.495Z,7.27
2017-07-24T05:45:24.219Z,3.63
2017-07-24T05:50:26.066Z,4.07
2017-07-24T05:55:28.589Z,8.40
2017-07-24T06:00:30.369Z,10.90
2017-07-24T06:05:33.215Z,3.90
2017-07-24T06:10:35.117Z,5.77
2017-07-24T06:15:36.977Z,5.10
2017-07-24T06:20:38.826Z,7.50
2017-07-24T06:25:40.633Z,3.93
2017-07-24T06:30:42.476Z,3.20
2017-07-24T06:35:44.974Z,6.33
2017-07-24T06:40:46.894Z,7.27
2017-07-24T06:45:48.835Z,8.00
2017-07-24T06:50:50.553Z,6.70
2017-07-24T06:55:52.323Z,4.00
2017-07-24T07:00:54.124Z,5.23
2017-07-24T07:05:56.018Z,6.53
2017-07-24T07:10:57.770Z,5.70
2017-07-24T07:15:59.574Z,6.60
2017-07-24T07:21:01.421Z,9.53
2017-07-24T07:26:03.254Z,5.40
2017-07-24T07:31:05.107Z,6.67
2017-07-24T07:36:06.874Z,5.83
2017-07-24T07:41:08.882Z,7.30
2017-07-24T07:46:10.655Z,4.97
2017-07-24T07:51:13.270Z,8.17
2017-07-24T07:56:15.071Z,5.20
2017-07-24T08:01:16.907Z,6.13
2017-07-24T08:06:19.419Z,5.47
2017-07-24T08:11:21.227Z,6.43
2017-07-24T08:16:23.085Z,7.80
2017-07-24T08:21:24.894Z,9.53
2017-07-24T08:26:26.679Z,8.97
2017-07-24T08:31:28.493Z,9.60
2017-07-24T08:36:31.018Z,11.17
2017-07-24T08:41:32.782Z,6.80
2017-07-24T08:46:34.499Z,14.10
2017-07-24T08:51:36.315Z,10.73
2017-07-24T08:56:38.081Z,7.40
2017-07-24T09:01:39.862Z,12.97
2017-07-24T09:06:41.648Z,8.07
2017-07-24T09:11:43.475Z,8.53
2017-07-24T09:16:45.219Z,14.03
2017-07-24T09:21:46.969Z,5.70
2017-07-24T09:26:48.735Z,11.83
2017-07-24T09:31:50.464Z,7.73
2017-07-24T09:36:52.206Z,9.90
2017-07-24T09:41:53.959Z,7.17
2017-07-24T09:46:55.700Z,16.30
2017-07-24T09:51:57.454Z,7.83
2017-07-24T09:56:59.237Z,5.83
2017-07-24T10:02:00.963Z,10.20
2017-07-24T10:07:02.808Z,12.40
2017-07-24T10:12:04.538Z,9.53
2017-07-24T10:17:13.212Z,10.50
2017-07-24T10:22:14.940Z,6.70
2017-07-24T10:27:16.718Z,9.27
2017-07-24T10:32:18.453Z,10.53
2017-07-24T10:37:20.254Z,7.90
2017-07-24T10:42:22.762Z,14.07
2017-07-24T10:47:24.493Z,11.70
2017-07-24T10:52:26.229Z,9.97
2017-07-24T10:57:28.750Z,7.27
2017-07-24T11:02:31.237Z,6.07
2017-07-24T11:07:32.983Z,8.73
2017-07-24T11:12:34.751Z,6.73
2017-07-24T11:17:36.521Z,6.20
2017-07-24T11:22:38.259Z,5.80
2017-07-24T11:27:40.047Z,4.30
2017-07-24T11:32:41.828Z,4.97
2017-07-24T11:37:43.635Z,6.60
2017-07-24T11:42:45.468Z,7.17
2017-07-24T11:47:47.527Z,15.17
2017-07-24T11:52:49.349Z,14.53
2017-07-24T11:57:51.541Z,15.90
2017-07-24T12:02:54.069Z,13.87
2017-07-24T12:07:57.649Z,17.40
2017-07-24T12:13:00.126Z,15.27
2017-07-24T12:18:01.904Z,12.90
2017-07-24T12:23:03.699Z,12.37
2017-07-24T12:28:05.465Z,14.17
2017-07-24T12:33:07.381Z,14.47
2017-07-24T12:38:09.198Z,17.90
2017-07-24T12:43:10.944Z,13.67
2017-07-24T12:48:12.669Z,16.90
2017-07-24T12:53:14.409Z,13.10
2017-07-24T12:58:16.150Z,13.80
2017-07-24T13:03:17.926Z,13.73
2017-07-24T13:08:19.755Z,8.77
2017-07-24T13:13:21.510Z,8.80
2017-07-24T13:18:23.309Z,8.53
2017-07-24T13:23:25.100Z,8.90
2017-07-24T13:28:26.824Z,7.77
2017-07-24T13:33:28.569Z,12.70
2017-07-24T13:38:31.382Z,12.60
2017-07-24T13:43:33.163Z,11.17
2017-07-24T13:48:35.259Z,12.97
2017-07-24T13:53:37.006Z,19.53
2017-07-24T13:58:38.891Z,12.53
2017-07-24T14:03:40.641Z,11.17
2017-07-24T14:08:42.411Z,12.43
2017-07-24T14:13:44.458Z,15.53
2017-07-24T14:18:46.533Z,11.23
2017-07-24T14:23:48.294Z,8.97
2017-07-24T14:28:50.410Z,12.07
2017-07-24T14:33:52.206Z,12.50
2017-07-24T14:38:54.082Z,12.30
2017-07-24T14:43:56.565Z,12.50
2017-07-24T14:48:58.319Z,12.30
2017-07-24T14:54:00.046Z,8.87
2017-07-24T14:59:01.902Z,12.60
2017-07-24T15:04:03.713Z,12.83
2017-07-24T15:09:05.470Z,16.93
2017-07-24T15:14:07.247Z,16.00
2017-07-24T15:19:08.986Z,9.13
2017-07-24T15:24:10.701Z,11.63
2017-07-24T15:29:12.487Z,18.77
2017-07-24T15:34:14.229Z,17.67
2017-07-24T15:39:16.008Z,21.03
2017-07-24T15:44:19.710Z,15.90
2017-07-24T15:49:21.754Z,16.17
2017-07-24T15:54:23.610Z,21.97
2017-07-24T15:59:26.026Z,12.40
2017-07-24T16:04:27.774Z,13.37
2017-07-24T16:09:31.125Z,19.77
2017-07-24T16:14:32.905Z,24.93
2017-07-24T16:19:36.124Z,18.10
2017-07-24T16:24:38.180Z,18.20
2017-07-24T16:29:40.261Z,23.63
2017-07-24T16:34:43.017Z,19.23
2017-07-24T16:39:45.732Z,20.13
2017-07-24T16:44:47.614Z,28.93
2017-07-24T16:49:49.401Z,18.00
2017-07-24T16:54:51.231Z,23.30
2017-07-24T16:59:52.994Z,20.23
2017-07-24T17:04:54.762Z,22.90
2017-07-24T17:09:56.526Z,28.40
2017-07-24T17:14:58.296Z,28.47
2017-07-24T17:20:00.026Z,19.37
2017-07-24T17:25:01.785Z,21.17
2017-07-24T17:30:03.882Z,35.83
2017-07-24T17:35:05.644Z,20.17
2017-07-24T17:40:07.386Z,17.47
2017-07-24T17:45:09.911Z,16.10
2017-07-24T17:50:11.647Z,12.77
2017-07-24T17:55:13.387Z,20.90
2017-07-24T18:00:15.131Z,22.07
2017-07-24T18:05:16.873Z,19.13
2017-07-24T18:10:18.616Z,19.40
2017-07-24T18:15:20.433Z,21.43
2017-07-24T18:20:22.266Z,38.13
2017-07-24T18:25:28.123Z,27.77
2017-07-24T18:30:45.712Z,29.73
2017-07-24T18:35:47.428Z,32.30
2017-07-24T18:40:49.940Z,41.37
2017-07-24T18:45:51.764Z,36.57
2017-07-24T18:50:54.443Z,44.10
2017-07-24T18:55:56.310Z,54.33
2017-07-24T19:00:58.115Z,46.30
2017-07-24T19:05:59.858Z,56.93
2017-07-24T19:11:01.617Z,49.87
2017-07-24T19:16:03.414Z,41.93
2017-07-24T19:21:05.197Z,67.90
2017-07-24T19:26:06.970Z,55.27
2017-07-24T19:31:08.703Z,50.17
2017-07-24T19:36:10.491Z,54.60
2017-07-24T19:41:12.215Z,40.77
2017-07-24T19:46:14.077Z,35.90
2017-07-24T19:51:15.839Z,44.10
2017-07-24T19:56:17.575Z,47.00
2017-07-24T20:01:19.400Z,40.47
2017-07-24T20:06:21.924Z,58.33
2017-07-24T20:11:23.839Z,45.70
2017-07-24T20:16:26.931Z,35.57
2017-07-24T20:21:28.683Z,34.53
2017-07-24T20:26:30.469Z,35.90
2017-07-24T20:31:32.226Z,49.80
2017-07-24T20:36:33.964Z,47.93
2017-07-24T20:41:35.765Z,42.33
2017-07-24T20:46:37.626Z,52.30
2017-07-24T20:51:39.370Z,40.57
2017-07-24T20:56:41.118Z,34.87
2017-07-24T21:01:43.613Z,35.77
2017-07-24T21:06:45.703Z,29.53
2017-07-24T21:11:47.454Z,31.07
2017-07-24T21:16:49.311Z,39.60
2017-07-24T21:21:51.806Z,31.27
2017-07-24T21:26:53.890Z,52.63
2017-07-24T21:31:55.838Z,49.63
2017-07-24T21:36:57.567Z,48.27
2017-07-24T21:41:59.320Z,46.23
2017-07-24T21:47:01.123Z,32.73
2017-07-24T21:52:02.856Z,45.87
2017-07-24T21:57:04.644Z,40.63
2017-07-24T22:02:06.471Z,43.13
2017-07-24T22:07:08.194Z,38.07
2017-07-24T22:12:09.969Z,41.83
2017-07-24T22:17:11.798Z,40.30
2017-07-24T22:22:13.555Z,39.37
2017-07-24T22:27:15.339Z,54.17
2017-07-24T22:32:17.104Z,58.47
2017-07-24T22:37:18.914Z,63.00
2017-07-24T22:42:20.878Z,49.50
2017-07-24T22:47:22.715Z,49.50
2017-07-24T22:52:32.183Z,49.37
2017-07-24T22:57:33.909Z,54.80
2017-07-24T23:02:35.710Z,33.57
2017-07-24T23:07:37.438Z,34.73
2017-07-24T23:12:39.167Z,38.77
2017-07-24T23:17:40.988Z,44.47
2017-07-24T23:22:42.734Z,47.03
2017-07-24T23:27:44.466Z,42.77
2017-07-24T23:32:46.308Z,44.83
2017-07-24T23:37:48.084Z,49.43
2017-07-24T23:42:49.865Z,51.27
2017-07-24T23:47:52.437Z,60.77
2017-07-24T23:52:54.264Z,64.83
2017-07-24T23:57:56.779Z,60.23
